createdAt,value
2022-10-29T00:02:01.682Z,14.70
2022-10-29T00:04:28.316Z,14.70
2022-10-29T00:06:54.908Z,14.70
2022-10-29T00:09:21.466Z,14.70
2022-10-29T00:11:48.076Z,14.70
2022-10-29T00:14:16.313Z,14.70
2022-10-29T00:16:42.984Z,14.70
2022-10-29T00:19:09.631Z,14.80
2022-10-29T00:21:37.931Z,14.70
2022-10-29T00:24:04.988Z,14.80
2022-10-29T00:26:31.592Z,14.80
2022-10-29T00:28:58.226Z,14.80
2022-10-29T00:31:25.400Z,14.80
2022-10-29T00:33:53.718Z,14.80
2022-10-29T00:36:23.030Z,14.70
2022-10-29T00:38:50.375Z,14.80
2022-10-29T00:41:21.356Z,14.80
2022-10-29T00:44:10.832Z,14.80
2022-10-29T00:49:05.334Z,14.90
2022-10-29T00:51:32.984Z,14.90
2022-10-29T00:54:06.523Z,14.90
2022-10-29T00:56:36.689Z,14.80
2022-10-29T00:59:04.749Z,14.80
2022-10-29T01:01:31.616Z,14.80
2022-10-29T01:04:00.082Z,14.80
2022-10-29T01:06:28.908Z,14.70
2022-10-29T01:08:55.533Z,14.70
2022-10-29T01:11:37.248Z,14.70
2022-10-29T01:14:27.616Z,14.70
2022-10-29T01:17:05.223Z,14.70
2022-10-29T01:19:50.425Z,14.70
2022-10-29T01:22:30.229Z,14.70
2022-10-29T01:25:25.480Z,14.70
2022-10-29T01:28:48.776Z,14.70
2022-10-29T01:31:24.374Z,14.70
2022-10-29T01:34:15.957Z,14.70
2022-10-29T01:36:53.726Z,14.70
2022-10-29T01:39:44.399Z,14.70
2022-10-29T01:42:26.803Z,14.70
2022-10-29T01:45:03.730Z,14.70
2022-10-29T01:47:36.248Z,14.70
2022-10-29T01:50:07.717Z,14.70
2022-10-29T01:52:35.978Z,14.70
2022-10-29T01:55:03.573Z,14.70
2022-10-29T01:57:35.737Z,14.70
2022-10-29T02:00:09.568Z,14.70
2022-10-29T02:03:05.218Z,14.70
2022-10-29T02:06:10.772Z,14.70
2022-10-29T02:08:52.795Z,14.70
2022-10-29T02:11:40.994Z,14.70
2022-10-29T02:14:24.014Z,14.70
2022-10-29T02:16:51.780Z,14.70
2022-10-29T02:19:18.706Z,14.70
2022-10-29T02:21:45.262Z,14.70
2022-10-29T02:24:12.168Z,14.70
2022-10-29T02:26:38.748Z,14.70
2022-10-29T02:29:05.359Z,14.70
2022-10-29T02:31:31.928Z,14.60
2022-10-29T02:33:58.483Z,14.60
2022-10-29T02:36:25.305Z,14.60
2022-10-29T02:38:51.855Z,14.60
2022-10-29T02:41:18.410Z,14.50
2022-10-29T02:43:45.034Z,14.50
2022-10-29T02:46:17.504Z,14.50
2022-10-29T02:48:44.404Z,14.50
2022-10-29T02:51:11.549Z,14.50
2022-10-29T02:53:38.340Z,14.50
2022-10-29T02:56:06.521Z,14.50
2022-10-29T02:58:33.471Z,14.40
2022-10-29T03:01:00.591Z,14.40
2022-10-29T03:03:27.599Z,14.40
2022-10-29T03:05:54.456Z,14.40
2022-10-29T03:08:21.227Z,14.40
2022-10-29T03:10:47.781Z,14.40
2022-10-29T03:13:14.824Z,14.30
2022-10-29T03:15:45.045Z,14.30
2022-10-29T03:18:12.295Z,14.30
2022-10-29T03:20:38.965Z,14.30
2022-10-29T03:23:05.602Z,14.30
2022-10-29T03:25:32.166Z,14.30
2022-10-29T03:27:59.029Z,14.30
2022-10-29T03:30:25.651Z,14.30
2022-10-29T03:32:52.372Z,14.30
2022-10-29T03:35:19.024Z,14.30
2022-10-29T03:37:48.346Z,14.30
2022-10-29T03:40:14.971Z,14.20
2022-10-29T03:42:41.543Z,14.20
2022-10-29T03:45:09.993Z,14.20
2022-10-29T03:47:36.856Z,14.10
2022-10-29T03:50:03.899Z,14.10
2022-10-29T03:52:30.497Z,14.10
2022-10-29T03:54:57.073Z,14.10
2022-10-29T03:57:23.704Z,14.10
2022-10-29T03:59:52.541Z,14.00
2022-10-29T04:02:19.893Z,14.00
2022-10-29T04:04:46.650Z,14.00
2022-10-29T04:07:13.670Z,14.00
2022-10-29T04:09:40.230Z,14.00
2022-10-29T04:12:07.399Z,14.00
2022-10-29T04:14:34.189Z,14.00
2022-10-29T04:17:00.794Z,13.90
2022-10-29T04:19:27.394Z,14.00
2022-10-29T04:30:14.838Z,14.00
2022-10-29T04:32:41.410Z,13.90
2022-10-29T04:35:08.196Z,13.90
2022-10-29T04:37:34.753Z,13.90
2022-10-29T04:40:01.778Z,13.90
2022-10-29T04:42:28.335Z,13.90
2022-10-29T04:44:54.901Z,13.90
2022-10-29T04:47:21.465Z,13.90
2022-10-29T04:49:48.020Z,13.90
2022-10-29T04:52:14.579Z,13.90
2022-10-29T04:54:41.152Z,13.90
2022-10-29T04:57:07.717Z,13.90
2022-10-29T04:59:34.301Z,13.90
2022-10-29T05:02:00.832Z,13.90
2022-10-29T05:04:29.369Z,13.90
2022-10-29T05:06:55.937Z,13.80
2022-10-29T05:09:22.519Z,13.80
2022-10-29T05:11:49.132Z,13.80
2022-10-29T05:14:15.726Z,13.80
2022-10-29T05:16:42.323Z,13.80
2022-10-29T05:19:09.052Z,13.80
2022-10-29T05:21:35.607Z,13.80
2022-10-29T05:24:02.200Z,15.00
2022-10-29T05:26:32.076Z,13.80
2022-10-29T05:28:58.668Z,13.80
2022-10-29T05:31:25.259Z,13.80
2022-10-29T05:33:55.456Z,13.80
2022-10-29T05:36:22.748Z,13.90
2022-10-29T05:38:49.314Z,13.90
2022-10-29T05:41:15.862Z,13.80
2022-10-29T05:43:42.420Z,13.90
2022-10-29T05:46:09.088Z,13.80
2022-10-29T05:48:35.832Z,13.80
2022-10-29T05:51:02.620Z,13.80
2022-10-29T05:53:29.215Z,13.80
2022-10-29T05:55:55.761Z,13.80
2022-10-29T05:58:22.338Z,13.80
2022-10-29T06:00:48.919Z,13.80
2022-10-29T06:03:16.765Z,13.80
2022-10-29T06:05:43.627Z,13.80
2022-10-29T06:08:10.391Z,13.80
2022-10-29T06:10:36.985Z,13.90
2022-10-29T06:13:12.804Z,13.90
2022-10-29T06:15:39.836Z,13.90
2022-10-29T06:18:06.458Z,13.90
2022-10-29T06:20:33.042Z,13.90
2022-10-29T06:22:59.765Z,13.90
2022-10-29T06:25:27.425Z,13.90
2022-10-29T06:28:08.690Z,13.90
2022-10-29T06:30:36.314Z,13.90
2022-10-29T06:33:04.316Z,13.90
2022-10-29T06:35:31.139Z,14.20
2022-10-29T06:37:58.132Z,14.00
2022-10-29T06:40:25.291Z,13.90
2022-10-29T06:42:59.772Z,14.00
2022-10-29T06:45:26.454Z,14.00
2022-10-29T06:47:53.380Z,14.00
2022-10-29T06:50:20.141Z,14.00
2022-10-29T06:52:57.118Z,14.00
2022-10-29T06:55:24.311Z,14.00
2022-10-29T06:57:58.238Z,14.00
2022-10-29T07:00:24.966Z,14.00
2022-10-29T07:02:51.952Z,14.10
2022-10-29T07:05:18.808Z,14.10
2022-10-29T07:07:45.409Z,14.10
2022-10-29T07:10:12.502Z,14.10
2022-10-29T07:12:40.960Z,14.10
2022-10-29T07:15:08.321Z,14.10
2022-10-29T07:17:35.163Z,14.20
2022-10-29T07:20:02.263Z,14.20
2022-10-29T07:22:33.894Z,14.20
2022-10-29T07:25:01.578Z,14.30
2022-10-29T07:27:28.773Z,14.30
2022-10-29T07:29:55.501Z,14.30
2022-10-29T07:32:23.811Z,14.30
2022-10-29T07:34:50.353Z,14.30
2022-10-29T07:37:16.948Z,14.30
2022-10-29T07:39:43.505Z,14.30
2022-10-29T07:42:10.075Z,14.40
2022-10-29T07:44:36.626Z,14.40
2022-10-29T07:47:03.272Z,14.40
2022-10-29T07:49:29.869Z,14.50
2022-10-29T07:51:56.483Z,14.50
2022-10-29T07:54:23.047Z,14.50
2022-10-29T07:56:52.978Z,14.60
2022-10-29T07:59:20.226Z,14.60
2022-10-29T08:01:47.129Z,14.70
2022-10-29T08:04:13.821Z,14.70
2022-10-29T08:06:40.707Z,14.70
2022-10-29T08:09:07.331Z,14.80
2022-10-29T08:11:34.043Z,14.80
2022-10-29T08:14:00.664Z,14.90
2022-10-29T08:16:27.415Z,14.90
2022-10-29T08:18:54.006Z,15.00
2022-10-29T08:21:20.729Z,15.00
2022-10-29T08:23:47.371Z,15.10
2022-10-29T08:26:13.938Z,15.10
2022-10-29T08:28:42.739Z,15.30
2022-10-29T08:31:09.751Z,15.30
2022-10-29T08:33:36.397Z,15.40
2022-10-29T08:36:02.981Z,15.40
2022-10-29T08:38:29.545Z,13.10
2022-10-29T08:41:23.835Z,15.60
2022-10-29T08:43:56.570Z,15.70
2022-10-29T08:46:45.989Z,15.80
2022-10-29T08:49:27.968Z,15.80
2022-10-29T08:52:24.185Z,15.90
2022-10-29T08:55:01.380Z,15.90
2022-10-29T08:57:33.740Z,16.00
2022-10-29T09:00:19.778Z,16.10
2022-10-29T09:02:46.504Z,16.10
2022-10-29T09:05:18.489Z,16.10
2022-10-29T09:08:09.451Z,16.20
2022-10-29T09:10:57.083Z,16.20
2022-10-29T09:13:32.080Z,16.30
2022-10-29T09:16:20.207Z,16.30
2022-10-29T09:19:15.055Z,16.40
2022-10-29T09:22:21.002Z,16.50
2022-10-29T09:25:02.412Z,16.60
2022-10-29T09:28:06.474Z,16.60
2022-10-29T09:30:43.271Z,16.70
2022-10-29T09:33:16.986Z,16.70
2022-10-29T09:35:47.287Z,16.70
2022-10-29T09:38:32.064Z,16.80
2022-10-29T09:41:01.657Z,16.90
2022-10-29T09:43:48.154Z,16.90
2022-10-29T09:46:52.132Z,16.90
2022-10-29T09:49:41.231Z,17.00
2022-10-29T09:52:19.103Z,17.00
2022-10-29T09:54:48.193Z,17.10
2022-10-29T09:57:29.442Z,17.10
2022-10-29T10:00:07.285Z,17.20
2022-10-29T10:02:38.150Z,17.20
2022-10-29T10:05:34.701Z,17.30
2022-10-29T10:08:08.202Z,17.30
2022-10-29T10:10:53.548Z,17.40
2022-10-29T10:13:26.255Z,17.40
2022-10-29T10:15:59.447Z,17.50
2022-10-29T10:18:38.740Z,17.60
2022-10-29T10:21:24.802Z,17.60
2022-10-29T10:23:53.032Z,17.70
2022-10-29T10:26:34.376Z,17.80
2022-10-29T10:29:16.448Z,17.80
2022-10-29T10:31:48.137Z,17.90
2022-10-29T10:34:17.519Z,18.00
2022-10-29T10:37:02.071Z,18.10
2022-10-29T10:39:39.341Z,18.20
2022-10-29T10:42:26.344Z,18.30
2022-10-29T10:44:58.996Z,18.40
2022-10-29T10:47:29.195Z,18.50
2022-10-29T10:50:10.728Z,18.50
2022-10-29T10:52:37.623Z,18.60
2022-10-29T10:55:22.764Z,18.70
2022-10-29T10:58:02.212Z,18.80
2022-10-29T11:00:32.496Z,18.80
2022-10-29T11:03:15.028Z,18.90
2022-10-29T11:05:47.624Z,19.00
2022-10-29T11:08:25.346Z,19.10
2022-10-29T11:10:58.206Z,19.10
2022-10-29T11:13:28.971Z,19.10
2022-10-29T11:16:01.576Z,19.20
2022-10-29T11:18:37.990Z,19.30
2022-10-29T11:21:24.781Z,19.30
2022-10-29T11:24:13.686Z,19.40
2022-10-29T11:27:14.578Z,19.40
2022-10-29T11:29:49.262Z,19.40
2022-10-29T11:32:39.808Z,19.40
2022-10-29T11:35:13.742Z,19.40
2022-10-29T11:38:01.916Z,19.50
2022-10-29T11:40:55.064Z,19.60
2022-10-29T11:43:21.984Z,19.60
2022-10-29T11:46:10.952Z,19.70
2022-10-29T11:49:15.792Z,19.70
2022-10-29T11:51:57.545Z,19.70
2022-10-29T11:54:51.923Z,19.70
2022-10-29T11:57:47.923Z,19.70
2022-10-29T12:00:21.415Z,19.80
2022-10-29T12:03:16.075Z,19.80
2022-10-29T12:06:01.007Z,19.80
2022-10-29T12:08:37.510Z,19.90
2022-10-29T12:11:09.907Z,19.90
2022-10-29T12:14:01.230Z,20.00
2022-10-29T12:16:46.862Z,20.00
2022-10-29T12:19:32.237Z,20.00
2022-10-29T12:22:07.820Z,20.10
2022-10-29T12:24:52.261Z,20.10
2022-10-29T12:27:39.679Z,20.40
2022-10-29T12:30:09.143Z,20.20
2022-10-29T12:33:07.880Z,20.30
2022-10-29T12:36:15.988Z,20.30
2022-10-29T12:38:47.295Z,20.30
2022-10-29T12:41:20.811Z,20.40
2022-10-29T12:43:48.365Z,20.40
2022-10-29T12:46:24.049Z,20.40
2022-10-29T12:48:57.859Z,20.50
2022-10-29T12:51:41.820Z,20.50
2022-10-29T12:54:34.577Z,20.60
2022-10-29T12:57:06.547Z,20.60
2022-10-29T12:59:35.762Z,20.70
2022-10-29T13:02:38.514Z,20.70
2022-10-29T13:05:10.704Z,20.80
2022-10-29T13:07:38.451Z,20.80
2022-10-29T13:10:30.700Z,20.80
2022-10-29T13:13:15.556Z,20.80
2022-10-29T13:15:47.684Z,20.80
2022-10-29T13:18:23.549Z,20.80
2022-10-29T13:20:52.303Z,20.80
2022-10-29T13:23:21.879Z,20.80
2022-10-29T13:25:59.050Z,20.80
2022-10-29T13:28:25.585Z,20.80
2022-10-29T13:31:03.743Z,20.90
2022-10-29T13:33:30.335Z,20.90
2022-10-29T13:35:57.895Z,20.90
2022-10-29T13:39:04.709Z,20.90
2022-10-29T13:41:41.992Z,20.90
2022-10-29T13:44:12.689Z,20.90
2022-10-29T13:46:50.912Z,20.90
2022-10-29T13:49:32.753Z,20.90
2022-10-29T13:52:03.272Z,21.00
2022-10-29T13:54:50.265Z,19.50
2022-10-29T13:57:34.329Z,21.00
2022-10-29T14:00:12.855Z,21.00
2022-10-29T14:02:42.243Z,21.00
2022-10-29T14:05:14.710Z,20.90
2022-10-29T14:07:47.586Z,21.10
2022-10-29T14:10:41.931Z,21.00
2022-10-29T14:13:33.902Z,20.90
2022-10-29T14:16:10.369Z,20.90
2022-10-29T14:18:40.826Z,20.90
2022-10-29T14:21:22.132Z,20.90
2022-10-29T14:24:09.568Z,20.90
2022-10-29T14:26:38.948Z,20.90
2022-10-29T14:29:22.728Z,20.90
2022-10-29T14:32:20.303Z,20.80
2022-10-29T14:34:51.426Z,20.80
2022-10-29T14:37:35.993Z,20.70
2022-10-29T14:40:19.793Z,20.70
2022-10-29T14:42:54.322Z,20.70
2022-10-29T14:45:25.185Z,20.60
2022-10-29T14:47:54.540Z,20.60
2022-10-29T14:50:25.336Z,20.60
2022-10-29T14:52:58.034Z,18.80
2022-10-29T14:55:40.049Z,20.50
2022-10-29T14:58:12.452Z,20.50
2022-10-29T15:00:51.236Z,20.50
2022-10-29T15:03:22.178Z,20.40
2022-10-29T15:05:49.355Z,20.40
2022-10-29T15:08:19.291Z,20.40
2022-10-29T15:10:47.839Z,20.40
2022-10-29T15:13:37.691Z,17.70
2022-10-29T15:16:16.880Z,20.30
2022-10-29T15:18:48.344Z,20.30
2022-10-29T15:21:22.751Z,20.30
2022-10-29T15:23:52.686Z,20.20
2022-10-29T15:26:21.617Z,20.20
2022-10-29T15:28:51.921Z,20.20
2022-10-29T15:31:27.636Z,20.10
2022-10-29T15:33:56.021Z,20.10
2022-10-29T15:36:22.636Z,20.10
2022-10-29T15:38:52.327Z,20.10
2022-10-29T15:41:39.384Z,20.10
2022-10-29T15:44:27.830Z,17.70
2022-10-29T15:46:58.961Z,19.90
2022-10-29T15:49:31.318Z,19.90
2022-10-29T15:52:00.500Z,19.80
2022-10-29T15:54:27.886Z,19.80
2022-10-29T15:56:54.619Z,19.70
2022-10-29T15:59:25.630Z,19.70
2022-10-29T16:01:52.373Z,19.60
2022-10-29T16:04:19.071Z,19.50
2022-10-29T16:06:45.700Z,19.50
2022-10-29T16:09:19.498Z,19.60
2022-10-29T16:11:46.217Z,19.40
2022-10-29T16:14:12.837Z,19.30
2022-10-29T16:16:39.409Z,19.30
2022-10-29T16:19:06.038Z,19.20
2022-10-29T16:21:32.755Z,19.20
2022-10-29T16:23:59.413Z,19.20
2022-10-29T16:26:26.366Z,19.10
2022-10-29T16:28:53.634Z,19.10
2022-10-29T16:31:27.306Z,19.00
2022-10-29T16:33:57.113Z,17.70
2022-10-29T16:36:24.012Z,18.90
2022-10-29T16:38:50.653Z,18.80
2022-10-29T16:41:18.765Z,18.80
2022-10-29T16:43:46.301Z,18.70
2022-10-29T16:46:13.289Z,18.70
2022-10-29T16:48:40.142Z,18.60
2022-10-29T16:51:07.543Z,18.60
2022-10-29T16:53:34.749Z,18.50
2022-10-29T16:56:01.703Z,18.50
2022-10-29T16:58:28.395Z,18.50
2022-10-29T17:01:10.249Z,18.40
2022-10-29T17:03:38.952Z,18.40
2022-10-29T17:06:07.533Z,18.30
2022-10-29T17:08:35.001Z,18.30
2022-10-29T17:11:04.004Z,18.20
2022-10-29T17:13:30.551Z,18.20
2022-10-29T17:15:57.227Z,18.20
2022-10-29T17:18:24.644Z,18.20
2022-10-29T17:20:58.620Z,18.10
2022-10-29T17:23:25.572Z,18.10
2022-10-29T17:25:56.948Z,18.10
2022-10-29T17:28:24.693Z,18.00
2022-10-29T17:30:51.438Z,18.00
2022-10-29T17:33:18.820Z,18.00
2022-10-29T17:35:47.044Z,18.00
2022-10-29T17:38:13.659Z,17.90
2022-10-29T17:40:42.599Z,17.90
2022-10-29T17:43:09.146Z,17.90
2022-10-29T17:45:36.909Z,17.80
2022-10-29T17:48:03.872Z,17.70
2022-10-29T17:50:30.429Z,17.70
2022-10-29T17:52:57.880Z,17.70
2022-10-29T17:55:24.769Z,17.60
2022-10-29T17:57:51.429Z,17.70
2022-10-29T18:00:18.648Z,17.60
2022-10-29T18:02:47.824Z,17.60
2022-10-29T18:05:14.420Z,17.60
2022-10-29T18:07:41.007Z,17.60
2022-10-29T18:10:07.925Z,17.60
2022-10-29T18:12:34.536Z,17.60
2022-10-29T18:15:01.254Z,17.60
2022-10-29T18:17:27.818Z,17.50
2022-10-29T18:19:54.402Z,17.50
2022-10-29T18:22:21.154Z,17.50
2022-10-29T18:24:47.787Z,19.90
2022-10-29T18:27:14.427Z,17.50
2022-10-29T18:29:41.138Z,17.50
2022-10-29T18:32:07.675Z,17.40
2022-10-29T18:34:34.278Z,17.40
2022-10-29T18:37:00.897Z,17.40
2022-10-29T18:39:27.506Z,17.40
2022-10-29T18:41:54.114Z,17.40
2022-10-29T18:44:20.713Z,17.40
2022-10-29T18:46:47.257Z,17.40
2022-10-29T18:49:14.109Z,17.40
2022-10-29T18:51:40.723Z,17.40
2022-10-29T18:54:07.449Z,17.40
2022-10-29T18:56:34.032Z,17.40
2022-10-29T18:59:00.724Z,17.40
2022-10-29T19:01:32.732Z,17.30
2022-10-29T19:04:04.320Z,17.40
2022-10-29T19:06:32.983Z,17.30
2022-10-29T19:09:06.153Z,17.30
2022-10-29T19:11:33.451Z,17.30
2022-10-29T19:14:05.532Z,17.30
2022-10-29T19:16:33.393Z,17.30
2022-10-29T19:21:38.236Z,17.20
2022-10-29T19:24:05.429Z,17.20
2022-10-29T19:26:34.230Z,17.20
2022-10-29T19:29:02.639Z,17.20
2022-10-29T19:31:30.793Z,17.20
2022-10-29T19:34:00.756Z,17.20
2022-10-29T19:36:29.353Z,17.20
2022-10-29T19:38:56.383Z,17.20
2022-10-29T19:41:23.482Z,17.20
2022-10-29T19:43:50.486Z,17.10
2022-10-29T19:46:22.798Z,17.10
2022-10-29T19:48:54.306Z,17.10
2022-10-29T19:51:22.139Z,17.10
2022-10-29T19:53:51.395Z,17.00
2022-10-29T19:56:18.278Z,17.00
2022-10-29T19:58:45.788Z,17.00
2022-10-29T20:01:16.003Z,17.00
2022-10-29T20:03:43.431Z,17.00
2022-10-29T20:06:10.217Z,17.00
2022-10-29T20:08:37.401Z,16.90
2022-10-29T20:11:04.182Z,16.90
2022-10-29T20:13:31.334Z,16.90
2022-10-29T20:15:58.162Z,16.90
2022-10-29T20:18:25.209Z,16.90
2022-10-29T20:20:56.097Z,16.90
2022-10-29T20:23:23.669Z,16.90
2022-10-29T20:25:50.330Z,16.80
2022-10-29T20:28:17.068Z,16.80
2022-10-29T20:30:43.826Z,16.90
2022-10-29T20:33:10.425Z,16.70
2022-10-29T20:35:37.249Z,16.70
2022-10-29T20:38:04.154Z,16.70
2022-10-29T20:40:30.857Z,16.70
2022-10-29T20:42:57.569Z,16.70
2022-10-29T20:45:24.186Z,16.60
2022-10-29T20:47:50.805Z,16.60
2022-10-29T20:50:17.370Z,16.60
2022-10-29T20:52:48.330Z,16.60
2022-10-29T20:55:15.800Z,16.60
2022-10-29T20:57:42.351Z,16.60
2022-10-29T21:00:09.917Z,16.60
2022-10-29T21:02:36.603Z,16.60
2022-10-29T21:05:03.411Z,16.50
2022-10-29T21:07:29.947Z,16.50
2022-10-29T21:09:56.513Z,16.50
2022-10-29T21:12:23.048Z,16.50
2022-10-29T21:14:49.646Z,16.40
2022-10-29T21:17:16.213Z,16.30
2022-10-29T21:19:42.779Z,16.30
2022-10-29T21:22:09.593Z,16.20
2022-10-29T21:24:36.450Z,16.20
2022-10-29T21:27:04.120Z,16.20
2022-10-29T21:29:30.753Z,16.20
2022-10-29T21:31:57.316Z,16.10
2022-10-29T21:34:23.927Z,16.10
2022-10-29T21:36:50.529Z,16.10
2022-10-29T21:39:17.199Z,16.00
2022-10-29T21:41:43.770Z,16.00
2022-10-29T21:44:10.331Z,16.00
2022-10-29T21:46:36.911Z,16.00
2022-10-29T21:49:03.573Z,16.00
2022-10-29T21:51:30.156Z,16.00
2022-10-29T21:53:56.864Z,16.00
2022-10-29T21:56:24.085Z,15.90
2022-10-29T21:58:52.395Z,15.90
2022-10-29T22:01:19.389Z,16.00
2022-10-29T22:03:47.443Z,15.90
2022-10-29T22:06:22.106Z,15.90
2022-10-29T22:08:56.507Z,15.90
2022-10-29T22:11:24.341Z,16.00
2022-10-29T22:13:52.738Z,16.00
2022-10-29T22:16:19.508Z,16.00
2022-10-29T22:18:46.312Z,16.00
2022-10-29T22:21:18.524Z,16.00
2022-10-29T22:23:47.007Z,16.00
2022-10-29T22:26:15.233Z,16.00
2022-10-29T22:28:41.946Z,16.00
2022-10-29T22:31:08.856Z,16.00
2022-10-29T22:33:35.750Z,15.90
2022-10-29T22:36:06.655Z,15.90
2022-10-29T22:38:33.335Z,16.00
2022-10-29T22:41:08.054Z,15.90
2022-10-29T22:43:35.054Z,15.90
2022-10-29T22:46:02.493Z,15.90
2022-10-29T22:48:29.057Z,15.90
2022-10-29T22:51:04.772Z,15.90
2022-10-29T22:53:32.351Z,15.90
2022-10-29T22:55:59.746Z,15.80
2022-10-29T22:58:26.431Z,15.80
2022-10-29T23:01:07.163Z,15.80
2022-10-29T23:03:34.507Z,15.80
2022-10-29T23:06:03.533Z,15.80
2022-10-29T23:08:31.240Z,15.70
2022-10-29T23:13:25.111Z,15.70
2022-10-29T23:15:52.882Z,15.60
2022-10-29T23:18:19.743Z,15.60
2022-10-29T23:20:46.493Z,15.60
2022-10-29T23:23:13.935Z,15.50
2022-10-29T23:25:41.691Z,15.50
2022-10-29T23:28:09.351Z,15.50
2022-10-29T23:30:36.153Z,15.50
2022-10-29T23:37:57.262Z,15.30
2022-10-29T23:40:24.020Z,15.30
2022-10-29T23:42:50.611Z,15.20
2022-10-29T23:47:44.371Z,15.10
2022-10-29T23:52:37.991Z,15.00
2022-10-29T23:55:04.896Z,15.00
2022-10-29T23:59:58.442Z,14.90
